createdAt,value
2017-03-09T00:00:04.038Z,0
2017-03-09T00:01:14.341Z,0
2017-03-09T00:02:25.035Z,0
2017-03-09T00:03:35.745Z,0
2017-03-09T00:04:46.448Z,0
2017-03-09T00:05:57.203Z,0
2017-03-09T00:07:07.907Z,0
2017-03-09T00:08:18.217Z,0
2017-03-09T00:09:28.528Z,0
2017-03-09T00:10:39.230Z,0
2017-03-09T00:11:49.942Z,0
2017-03-09T00:13:00.635Z,0
2017-03-09T00:14:11.345Z,0
2017-03-09T00:15:22.073Z,0
2017-03-09T00:16:32.767Z,0
2017-03-09T00:17:43.458Z,0
2017-03-09T00:18:54.171Z,0
2017-03-09T00:20:04.879Z,0
2017-03-09T00:21:15.196Z,0
2017-03-09T00:22:25.528Z,0
2017-03-09T00:23:35.859Z,0
2017-03-09T00:24:46.178Z,0
2017-03-09T00:25:56.893Z,0
2017-03-09T00:27:07.597Z,0
2017-03-09T00:28:18.293Z,0
2017-03-09T00:29:28.188Z,0
2017-03-09T00:30:38.876Z,0
2017-03-09T00:31:49.576Z,0
2017-03-09T00:33:00.289Z,0
2017-03-09T00:34:10.991Z,0
2017-03-09T00:35:21.690Z,0
2017-03-09T00:36:32.402Z,0
2017-03-09T00:37:43.093Z,0
2017-03-09T00:38:53.784Z,0
2017-03-09T00:40:04.507Z,0
2017-03-09T00:41:15.225Z,0
2017-03-09T00:42:25.922Z,0
2017-03-09T00:43:36.621Z,0
2017-03-09T00:44:47.330Z,0
2017-03-09T00:45:58.034Z,0
2017-03-09T00:47:08.734Z,0
2017-03-09T00:48:19.038Z,0
2017-03-09T00:49:29.742Z,0
2017-03-09T00:50:40.464Z,0
2017-03-09T00:51:51.169Z,0
2017-03-09T00:53:01.888Z,0
2017-03-09T00:54:12.586Z,0
2017-03-09T00:55:23.287Z,0
2017-03-09T00:56:33.988Z,0
2017-03-09T00:57:44.689Z,0
2017-03-09T00:58:55.410Z,0
2017-03-09T01:00:05.756Z,0
2017-03-09T01:01:16.445Z,0
2017-03-09T01:02:26.748Z,0
2017-03-09T01:03:37.473Z,0
2017-03-09T01:04:48.165Z,0
2017-03-09T01:05:58.856Z,0
2017-03-09T01:07:09.569Z,0
2017-03-09T01:08:20.269Z,0
2017-03-09T01:09:30.983Z,0
2017-03-09T01:10:41.288Z,0
2017-03-09T01:11:51.976Z,0
2017-03-09T01:13:02.300Z,0
2017-03-09T01:14:12.997Z,0
2017-03-09T01:15:23.308Z,0
2017-03-09T01:16:33.599Z,0
2017-03-09T01:17:44.294Z,0
2017-03-09T01:18:55.013Z,0
2017-03-09T01:20:05.754Z,0
2017-03-09T01:21:16.454Z,0
2017-03-09T01:22:27.192Z,0
2017-03-09T01:23:37.485Z,0
2017-03-09T01:24:48.204Z,0
2017-03-09T01:25:58.902Z,0
2017-03-09T01:27:09.606Z,0
2017-03-09T01:28:19.507Z,0
2017-03-09T01:29:29.805Z,0
2017-03-09T01:30:40.521Z,0
2017-03-09T01:31:51.239Z,0
2017-03-09T01:33:01.932Z,0
2017-03-09T01:34:12.667Z,0
2017-03-09T01:35:23.393Z,0
2017-03-09T01:36:34.101Z,0
2017-03-09T01:37:44.391Z,0
2017-03-09T01:38:55.097Z,0
2017-03-09T01:40:05.419Z,0
2017-03-09T01:41:16.140Z,0
2017-03-09T01:42:26.831Z,0
2017-03-09T01:43:37.523Z,0
2017-03-09T01:44:47.839Z,0
2017-03-09T01:45:58.550Z,0
2017-03-09T01:47:09.250Z,0
2017-03-09T01:48:19.964Z,0
2017-03-09T01:49:30.662Z,0
2017-03-09T01:50:41.361Z,0
2017-03-09T01:51:51.663Z,0
2017-03-09T01:53:02.366Z,0
2017-03-09T01:54:13.076Z,0
2017-03-09T01:55:22.986Z,0
2017-03-09T01:56:33.690Z,0
2017-03-09T01:57:44.395Z,0
2017-03-09T01:58:55.081Z,0
2017-03-09T02:00:05.792Z,0
2017-03-09T02:01:16.099Z,0
2017-03-09T02:02:26.797Z,0
2017-03-09T02:03:37.494Z,0
2017-03-09T02:04:48.223Z,0
2017-03-09T02:05:58.912Z,0
2017-03-09T02:07:09.633Z,0
2017-03-09T02:08:20.330Z,0
2017-03-09T02:09:30.633Z,0
2017-03-09T02:10:40.961Z,0
2017-03-09T02:11:51.670Z,0
2017-03-09T02:13:02.390Z,0
2017-03-09T02:14:13.102Z,0
2017-03-09T02:15:22.998Z,0
2017-03-09T02:16:33.691Z,0
2017-03-09T02:17:44.400Z,0
2017-03-09T02:18:55.110Z,0
2017-03-09T02:20:05.876Z,0
2017-03-09T02:21:16.573Z,0
2017-03-09T02:22:27.258Z,0
2017-03-09T02:23:38.001Z,0
2017-03-09T02:24:48.701Z,0
2017-03-09T02:25:59.398Z,0
2017-03-09T02:27:10.097Z,0
2017-03-09T02:28:20.407Z,0
2017-03-09T02:29:30.709Z,0
2017-03-09T02:30:41.428Z,0
2017-03-09T02:31:52.167Z,0
2017-03-09T02:33:02.878Z,0
2017-03-09T02:34:13.180Z,0
2017-03-09T02:35:23.900Z,0
2017-03-09T02:36:34.219Z,0
2017-03-09T02:37:44.923Z,0
2017-03-09T02:38:55.249Z,0
2017-03-09T02:40:05.953Z,0
2017-03-09T02:41:16.646Z,0
2017-03-09T02:42:26.959Z,0
2017-03-09T02:43:37.657Z,0
2017-03-09T02:44:48.367Z,0
2017-03-09T02:45:59.055Z,0
2017-03-09T02:47:09.764Z,0
2017-03-09T02:48:20.469Z,0
2017-03-09T02:49:31.164Z,0
2017-03-09T02:50:41.850Z,0
2017-03-09T02:51:52.555Z,0
2017-03-09T02:53:03.262Z,0
2017-03-09T02:54:13.972Z,0
2017-03-09T02:55:24.295Z,0
2017-03-09T02:56:35.003Z,0
2017-03-09T02:57:45.699Z,0
2017-03-09T02:58:56.439Z,0
2017-03-09T03:00:07.149Z,0
2017-03-09T03:01:17.468Z,0
2017-03-09T03:02:28.169Z,0
2017-03-09T03:03:38.465Z,0
2017-03-09T03:04:48.770Z,0
2017-03-09T03:05:59.081Z,0
2017-03-09T03:07:09.792Z,0
2017-03-09T03:08:20.539Z,0
2017-03-09T03:09:31.384Z,0
2017-03-09T03:10:42.082Z,0
2017-03-09T03:11:52.782Z,0
2017-03-09T03:13:03.079Z,0
2017-03-09T03:14:13.772Z,0
2017-03-09T03:15:24.070Z,0
2017-03-09T03:16:34.778Z,0
2017-03-09T03:17:45.492Z,0
2017-03-09T03:18:55.816Z,0
2017-03-09T03:20:06.503Z,0
2017-03-09T03:21:16.831Z,0
2017-03-09T03:22:27.525Z,0
2017-03-09T03:23:38.251Z,0
2017-03-09T03:24:48.963Z,0
2017-03-09T03:25:59.670Z,0
2017-03-09T03:27:09.997Z,0
2017-03-09T03:28:20.324Z,0
2017-03-09T03:29:31.037Z,0
2017-03-09T03:30:41.753Z,0
2017-03-09T03:31:52.454Z,0
2017-03-09T03:33:03.168Z,0
2017-03-09T03:34:13.886Z,0
2017-03-09T03:35:24.176Z,0
2017-03-09T03:36:34.881Z,0
2017-03-09T03:37:45.572Z,0
2017-03-09T03:38:56.284Z,0
2017-03-09T03:40:06.995Z,0
2017-03-09T03:41:17.709Z,0
2017-03-09T03:42:28.009Z,0
2017-03-09T03:43:38.700Z,0
2017-03-09T03:44:49.410Z,0
2017-03-09T03:46:00.108Z,0
2017-03-09T03:47:10.787Z,0
2017-03-09T03:48:21.122Z,0
2017-03-09T03:49:31.426Z,0
2017-03-09T03:50:42.125Z,0
2017-03-09T03:51:52.839Z,0
2017-03-09T03:53:03.535Z,0
2017-03-09T03:54:14.250Z,0
2017-03-09T03:55:24.185Z,0
2017-03-09T03:56:34.893Z,0
2017-03-09T03:57:45.212Z,0
2017-03-09T03:58:55.921Z,0
2017-03-09T04:00:06.628Z,0
2017-03-09T04:01:17.328Z,0
2017-03-09T04:02:28.022Z,0
2017-03-09T04:03:38.747Z,0
2017-03-09T04:04:49.449Z,0
2017-03-09T04:06:00.168Z,0
2017-03-09T04:07:10.869Z,0
2017-03-09T04:08:21.562Z,0
2017-03-09T04:09:32.252Z,0
2017-03-09T04:10:42.949Z,0
2017-03-09T04:11:53.253Z,0
2017-03-09T04:13:03.961Z,0
2017-03-09T04:14:14.674Z,0
2017-03-09T04:15:25.412Z,0
2017-03-09T04:16:35.734Z,0
2017-03-09T04:17:46.032Z,0
2017-03-09T04:18:56.725Z,0
2017-03-09T04:20:07.418Z,0
2017-03-09T04:21:18.129Z,0
2017-03-09T04:22:28.432Z,0
2017-03-09T04:23:39.146Z,0
2017-03-09T04:24:49.871Z,0
2017-03-09T04:26:00.586Z,0
2017-03-09T04:27:10.911Z,0
2017-03-09T04:28:21.213Z,0
2017-03-09T04:29:31.917Z,0
2017-03-09T04:30:42.631Z,0
2017-03-09T04:31:53.324Z,0
2017-03-09T04:33:04.041Z,0
2017-03-09T04:34:14.752Z,0
2017-03-09T04:35:25.445Z,0
2017-03-09T04:36:36.143Z,0
2017-03-09T04:37:46.829Z,0
2017-03-09T04:38:57.513Z,0
2017-03-09T04:40:07.809Z,0
2017-03-09T04:41:18.501Z,0
2017-03-09T04:42:29.211Z,0
2017-03-09T04:43:39.919Z,0
2017-03-09T04:44:49.823Z,0
2017-03-09T04:46:00.529Z,0
2017-03-09T04:47:10.833Z,0
2017-03-09T04:48:21.142Z,0
2017-03-09T04:49:31.849Z,0
2017-03-09T04:50:42.558Z,0
2017-03-09T04:51:53.249Z,0
2017-03-09T04:53:03.948Z,0
2017-03-09T04:54:14.642Z,0
2017-03-09T04:55:25.345Z,0
2017-03-09T04:56:36.030Z,0
2017-03-09T04:57:46.728Z,0
2017-03-09T04:58:57.426Z,0
2017-03-09T05:00:07.758Z,0
2017-03-09T05:01:18.066Z,0
2017-03-09T05:02:28.368Z,0
2017-03-09T05:03:38.679Z,0
2017-03-09T05:04:49.391Z,0
2017-03-09T05:06:00.092Z,0
2017-03-09T05:07:10.398Z,0
2017-03-09T05:08:21.095Z,0
2017-03-09T05:09:31.010Z,0
2017-03-09T05:10:41.716Z,0
2017-03-09T05:11:52.414Z,0
2017-03-09T05:13:03.131Z,0
2017-03-09T05:14:13.825Z,0
2017-03-09T05:15:24.114Z,0
2017-03-09T05:16:34.414Z,0
2017-03-09T05:17:44.707Z,0
2017-03-09T05:18:55.410Z,0
2017-03-09T05:20:05.709Z,0
2017-03-09T05:21:16.412Z,0
2017-03-09T05:22:27.115Z,0
2017-03-09T05:23:37.820Z,0
2017-03-09T05:24:48.136Z,0
2017-03-09T05:25:58.842Z,0
2017-03-09T05:27:09.554Z,0
2017-03-09T05:28:20.241Z,0
2017-03-09T05:29:30.936Z,0
2017-03-09T05:30:41.656Z,0
2017-03-09T05:31:51.951Z,0
2017-03-09T05:33:02.642Z,0
2017-03-09T05:34:12.958Z,0
2017-03-09T05:35:23.656Z,0
2017-03-09T05:36:33.566Z,0
2017-03-09T05:37:44.247Z,0
2017-03-09T05:38:54.968Z,0
2017-03-09T05:40:05.294Z,0
2017-03-09T05:41:15.997Z,5
2017-03-09T05:42:26.320Z,5
2017-03-09T05:43:37.017Z,5
2017-03-09T05:44:47.702Z,5
2017-03-09T05:45:58.392Z,10
2017-03-09T05:47:09.097Z,10
2017-03-09T05:48:19.398Z,10
2017-03-09T05:49:29.712Z,10
2017-03-09T05:50:40.415Z,10
2017-03-09T05:51:51.115Z,10
2017-03-09T05:53:01.822Z,10
2017-03-09T05:54:12.532Z,10
2017-03-09T05:55:23.239Z,10
2017-03-09T05:56:33.959Z,15
2017-03-09T05:57:44.661Z,20
2017-03-09T05:58:55.377Z,20
2017-03-09T06:00:06.103Z,25
2017-03-09T06:01:16.805Z,25
2017-03-09T06:02:27.518Z,25
2017-03-09T06:03:37.817Z,25
2017-03-09T06:04:48.505Z,20
2017-03-09T06:05:59.209Z,20
2017-03-09T06:07:09.903Z,25
2017-03-09T06:08:20.589Z,25
2017-03-09T06:09:30.888Z,25
2017-03-09T06:10:41.584Z,25
2017-03-09T06:11:52.280Z,30
2017-03-09T06:13:02.978Z,35
2017-03-09T06:14:13.680Z,40
2017-03-09T06:15:24.380Z,40
2017-03-09T06:16:35.077Z,45
2017-03-09T06:17:45.792Z,45
2017-03-09T06:18:56.487Z,50
2017-03-09T06:20:07.229Z,50
2017-03-09T06:21:17.543Z,50
2017-03-09T06:22:28.252Z,55
2017-03-09T06:23:38.539Z,55
2017-03-09T06:24:49.222Z,60
2017-03-09T06:25:59.924Z,60
2017-03-09T06:27:10.616Z,60
2017-03-09T06:28:21.327Z,60
2017-03-09T06:29:31.653Z,65
2017-03-09T06:30:42.381Z,65
2017-03-09T06:31:53.107Z,70
2017-03-09T06:33:03.824Z,70
2017-03-09T06:34:14.534Z,75
2017-03-09T06:35:24.841Z,75
2017-03-09T06:36:35.536Z,75
2017-03-09T06:37:46.245Z,80
2017-03-09T06:38:56.937Z,85
2017-03-09T06:40:07.257Z,85
2017-03-09T06:41:17.555Z,90
2017-03-09T06:42:28.314Z,90
2017-03-09T06:43:39.022Z,90
2017-03-09T06:44:49.725Z,90
2017-03-09T06:46:00.427Z,95
2017-03-09T06:47:11.133Z,95
2017-03-09T06:48:21.440Z,95
2017-03-09T06:49:32.142Z,100
2017-03-09T06:50:42.850Z,105
2017-03-09T06:51:53.553Z,110
2017-03-09T06:53:04.255Z,115
2017-03-09T06:54:14.962Z,120
2017-03-09T06:55:25.291Z,125
2017-03-09T06:56:35.991Z,130
2017-03-09T06:57:46.707Z,135
2017-03-09T06:58:57.050Z,140
2017-03-09T07:00:07.363Z,140
2017-03-09T07:01:18.056Z,150
2017-03-09T07:02:28.748Z,145
2017-03-09T07:03:39.445Z,145
2017-03-09T07:04:50.157Z,145
2017-03-09T07:06:00.472Z,145
2017-03-09T07:07:10.799Z,145
2017-03-09T07:08:21.509Z,140
2017-03-09T07:09:32.247Z,140
2017-03-09T07:10:42.965Z,135
2017-03-09T07:11:53.678Z,135
2017-03-09T07:13:04.395Z,130
2017-03-09T07:14:14.710Z,125
2017-03-09T07:15:25.433Z,125
2017-03-09T07:16:35.735Z,125
2017-03-09T07:17:46.424Z,130
2017-03-09T07:18:57.137Z,135
2017-03-09T07:20:07.455Z,145
2017-03-09T07:21:18.174Z,155
2017-03-09T07:22:28.888Z,160
2017-03-09T07:23:39.598Z,170
2017-03-09T07:24:50.305Z,185
2017-03-09T07:26:01.018Z,195
2017-03-09T07:27:11.743Z,205
2017-03-09T07:28:22.448Z,215
2017-03-09T07:29:32.768Z,230
2017-03-09T07:30:43.487Z,235
2017-03-09T07:31:54.213Z,245
2017-03-09T07:33:04.904Z,245
2017-03-09T07:34:15.236Z,250
2017-03-09T07:35:25.962Z,255
2017-03-09T07:36:36.704Z,265
2017-03-09T07:37:47.417Z,270
2017-03-09T07:38:58.113Z,280
2017-03-09T07:40:08.421Z,285
2017-03-09T07:41:19.128Z,290
2017-03-09T07:42:29.027Z,295
2017-03-09T07:43:39.350Z,295
2017-03-09T07:44:50.046Z,290
2017-03-09T07:45:59.953Z,285
2017-03-09T07:47:10.682Z,280
2017-03-09T07:48:21.371Z,270
2017-03-09T07:49:31.686Z,270
2017-03-09T07:50:41.990Z,265
2017-03-09T07:51:52.689Z,265
2017-03-09T07:53:03.400Z,260
2017-03-09T07:54:13.710Z,260
2017-03-09T07:55:24.038Z,260
2017-03-09T07:56:34.744Z,260
2017-03-09T07:57:45.064Z,255
2017-03-09T07:58:55.778Z,265
2017-03-09T08:00:06.501Z,275
2017-03-09T08:01:17.212Z,275
2017-03-09T08:02:27.911Z,280
2017-03-09T08:03:38.651Z,285
2017-03-09T08:04:49.354Z,290
2017-03-09T08:05:59.680Z,290
2017-03-09T08:07:10.402Z,295
2017-03-09T08:08:21.117Z,295
2017-03-09T08:09:31.439Z,300
2017-03-09T08:10:41.734Z,295
2017-03-09T08:11:52.445Z,295
2017-03-09T08:13:03.156Z,295
2017-03-09T08:14:13.860Z,300
2017-03-09T08:15:24.569Z,300
2017-03-09T08:16:35.283Z,300
2017-03-09T08:17:45.987Z,305
2017-03-09T08:18:55.902Z,310
2017-03-09T08:20:06.617Z,315
2017-03-09T08:21:16.923Z,320
2017-03-09T08:22:27.236Z,325
2017-03-09T08:23:37.956Z,330
2017-03-09T08:24:48.688Z,335
2017-03-09T08:25:59.384Z,340
2017-03-09T08:27:10.105Z,345
2017-03-09T08:28:20.428Z,350
2017-03-09T08:29:31.117Z,360
2017-03-09T08:30:41.830Z,360
2017-03-09T08:31:52.526Z,360
2017-03-09T08:33:02.819Z,360
2017-03-09T08:34:13.149Z,355
2017-03-09T08:35:23.862Z,355
2017-03-09T08:36:34.577Z,355
2017-03-09T08:40:02.303Z,345
2017-03-09T08:41:13.000Z,350
2017-03-09T08:42:23.715Z,345
2017-03-09T08:43:34.442Z,350
2017-03-09T08:44:45.177Z,355
2017-03-09T08:45:55.888Z,355
2017-03-09T08:47:06.202Z,360
2017-03-09T08:48:16.521Z,360
2017-03-09T08:49:26.440Z,365
2017-03-09T08:50:36.375Z,365
2017-03-09T08:51:47.088Z,365
2017-03-09T08:52:57.783Z,365
2017-03-09T08:54:08.495Z,370
2017-03-09T08:55:19.194Z,370
2017-03-09T08:56:29.903Z,370
2017-03-09T08:57:40.625Z,375
2017-03-09T08:58:51.330Z,370
2017-03-09T09:00:02.050Z,370
2017-03-09T09:01:12.747Z,370
2017-03-09T09:02:23.449Z,365
2017-03-09T09:03:34.180Z,365
2017-03-09T09:04:44.489Z,370
2017-03-09T09:05:55.177Z,375
2017-03-09T09:07:05.892Z,380
2017-03-09T09:08:16.599Z,385
2017-03-09T09:09:27.302Z,390
2017-03-09T09:10:38.016Z,395
2017-03-09T09:11:48.333Z,400
2017-03-09T09:12:59.044Z,405
2017-03-09T09:14:09.773Z,405
2017-03-09T09:15:20.492Z,405
2017-03-09T09:16:30.821Z,415
2017-03-09T09:17:41.521Z,420
2017-03-09T09:18:52.224Z,420
2017-03-09T09:20:02.929Z,425
2017-03-09T09:21:13.638Z,425
2017-03-09T09:22:23.956Z,435
2017-03-09T09:23:34.264Z,435
2017-03-09T09:24:44.559Z,445
2017-03-09T09:25:55.276Z,450
2017-03-09T09:27:05.599Z,455
2017-03-09T09:28:16.291Z,465
2017-03-09T09:29:26.986Z,470
2017-03-09T09:30:37.697Z,475
2017-03-09T09:31:48.398Z,480
2017-03-09T09:32:59.107Z,475
2017-03-09T09:34:09.818Z,470
2017-03-09T09:35:20.147Z,465
2017-03-09T09:36:30.865Z,460
2017-03-09T09:37:41.179Z,455
2017-03-09T09:38:51.895Z,450
2017-03-09T09:40:01.830Z,445
2017-03-09T09:41:12.535Z,440
2017-03-09T09:42:23.248Z,435
2017-03-09T09:43:33.938Z,430
2017-03-09T09:44:44.673Z,420
2017-03-09T09:45:55.400Z,415
2017-03-09T09:47:05.711Z,415
2017-03-09T09:48:16.422Z,410
2017-03-09T09:49:27.131Z,405
2017-03-09T09:50:37.871Z,405
2017-03-09T09:51:48.609Z,405
2017-03-09T09:52:59.334Z,395
2017-03-09T09:54:09.249Z,385
2017-03-09T09:55:20.129Z,380
2017-03-09T09:56:30.849Z,375
2017-03-09T09:57:41.543Z,370
2017-03-09T09:58:52.251Z,365
2017-03-09T10:00:02.563Z,355
2017-03-09T10:01:13.525Z,350
2017-03-09T10:02:24.261Z,345
2017-03-09T10:03:34.587Z,345
2017-03-09T10:04:45.290Z,345
2017-03-09T10:05:56.020Z,350
2017-03-09T10:07:06.739Z,340
2017-03-09T10:08:17.460Z,330
2017-03-09T10:09:28.165Z,325
2017-03-09T10:10:38.860Z,325
2017-03-09T10:11:49.597Z,325
2017-03-09T10:12:59.911Z,325
2017-03-09T10:14:10.818Z,325
2017-03-09T10:15:21.524Z,325
2017-03-09T10:16:32.264Z,320
2017-03-09T10:17:42.981Z,315
2017-03-09T10:18:53.702Z,305
2017-03-09T10:20:04.407Z,305
2017-03-09T10:21:15.120Z,305
2017-03-09T10:22:25.832Z,305
2017-03-09T10:23:36.544Z,305
2017-03-09T10:24:47.245Z,310
2017-03-09T10:25:57.947Z,315
2017-03-09T10:27:08.657Z,320
2017-03-09T10:28:19.379Z,320
2017-03-09T10:29:29.706Z,325
2017-03-09T10:30:40.413Z,335
2017-03-09T10:31:51.132Z,345
2017-03-09T10:33:01.833Z,355
2017-03-09T10:34:12.553Z,365
2017-03-09T10:35:23.277Z,370
2017-03-09T10:36:33.988Z,375
2017-03-09T10:37:44.694Z,375
2017-03-09T10:38:55.408Z,380
2017-03-09T10:40:06.116Z,385
2017-03-09T10:41:16.841Z,395
2017-03-09T10:42:26.758Z,405
2017-03-09T10:43:37.084Z,415
2017-03-09T10:44:47.401Z,425
2017-03-09T10:45:58.095Z,435
2017-03-09T10:47:08.813Z,440
2017-03-09T10:48:19.531Z,455
2017-03-09T10:49:29.827Z,465
2017-03-09T10:50:40.170Z,475
2017-03-09T10:51:50.864Z,480
2017-03-09T10:53:01.175Z,480
2017-03-09T10:54:11.890Z,480
2017-03-09T10:55:22.198Z,480
2017-03-09T10:56:32.890Z,485
2017-03-09T10:57:43.193Z,485
2017-03-09T10:58:53.902Z,490
2017-03-09T11:00:04.628Z,485
2017-03-09T11:01:15.354Z,490
2017-03-09T11:02:26.064Z,480
2017-03-09T11:03:36.770Z,480
2017-03-09T11:04:47.466Z,480
2017-03-09T11:05:58.182Z,480
2017-03-09T11:07:08.918Z,485
2017-03-09T11:08:19.639Z,485
2017-03-09T11:09:30.365Z,495
2017-03-09T11:10:41.073Z,510
2017-03-09T11:11:51.781Z,515
2017-03-09T11:13:02.098Z,515
2017-03-09T11:14:12.794Z,515
2017-03-09T11:15:23.487Z,520
2017-03-09T11:16:33.411Z,520
2017-03-09T11:17:44.126Z,515
2017-03-09T11:18:54.852Z,515
2017-03-09T11:20:05.591Z,515
2017-03-09T11:21:16.308Z,510
2017-03-09T11:22:27.011Z,510
2017-03-09T11:23:37.722Z,505
2017-03-09T11:24:48.417Z,500
2017-03-09T11:25:59.123Z,495
2017-03-09T11:27:09.826Z,490
2017-03-09T11:28:20.136Z,490
2017-03-09T11:29:30.846Z,485
2017-03-09T11:30:41.581Z,480
2017-03-09T11:31:51.892Z,480
2017-03-09T11:33:02.196Z,485
2017-03-09T11:34:12.929Z,475
2017-03-09T11:35:23.238Z,475
2017-03-09T11:36:33.941Z,470
2017-03-09T11:37:44.682Z,475
2017-03-09T11:38:55.016Z,475
2017-03-09T11:40:05.737Z,475
2017-03-09T11:41:16.450Z,475
2017-03-09T11:42:27.169Z,475
2017-03-09T11:43:37.899Z,475
2017-03-09T11:44:48.609Z,465
2017-03-09T11:45:59.346Z,460
2017-03-09T11:47:09.664Z,445
2017-03-09T11:48:20.371Z,440
2017-03-09T11:49:30.688Z,430
2017-03-09T11:50:41.031Z,430
2017-03-09T11:51:51.733Z,425
2017-03-09T11:53:02.443Z,420
2017-03-09T11:54:13.169Z,405
2017-03-09T11:55:23.879Z,415
2017-03-09T11:56:34.601Z,410
2017-03-09T11:57:45.304Z,410
2017-03-09T11:58:55.663Z,405
2017-03-09T12:00:06.370Z,405
2017-03-09T12:01:17.068Z,405
2017-03-09T12:02:27.430Z,405
2017-03-09T12:03:37.743Z,405
2017-03-09T12:04:48.471Z,400
2017-03-09T12:05:59.182Z,400
2017-03-09T12:07:09.892Z,395
2017-03-09T12:08:20.200Z,390
2017-03-09T12:09:30.921Z,385
2017-03-09T12:10:41.240Z,380
2017-03-09T12:11:51.556Z,375
2017-03-09T12:13:01.871Z,375
2017-03-09T12:14:12.591Z,375
2017-03-09T12:15:23.299Z,380
2017-03-09T12:16:34.016Z,385
2017-03-09T12:17:44.740Z,380
2017-03-09T12:18:55.470Z,370
2017-03-09T12:20:06.169Z,365
2017-03-09T12:21:16.887Z,355
2017-03-09T12:22:27.631Z,345
2017-03-09T12:23:38.363Z,340
2017-03-09T12:24:49.077Z,335
2017-03-09T12:25:59.396Z,330
2017-03-09T12:27:09.734Z,325
2017-03-09T12:28:19.653Z,320
2017-03-09T12:29:29.977Z,315
2017-03-09T12:30:40.683Z,305
2017-03-09T12:31:50.628Z,300
2017-03-09T12:33:01.325Z,285
2017-03-09T12:34:12.038Z,280
2017-03-09T12:35:22.767Z,280
2017-03-09T12:36:33.480Z,270
2017-03-09T12:37:44.203Z,270
2017-03-09T12:38:54.520Z,265
2017-03-09T12:40:05.236Z,260
2017-03-09T12:41:15.957Z,260
2017-03-09T12:42:26.677Z,260
2017-03-09T12:43:36.994Z,255
2017-03-09T12:44:47.724Z,260
2017-03-09T12:45:58.023Z,260
2017-03-09T12:47:08.769Z,260
2017-03-09T12:48:19.059Z,265
2017-03-09T12:49:29.409Z,270
2017-03-09T12:50:40.107Z,275
2017-03-09T12:51:50.809Z,285
2017-03-09T12:53:01.522Z,295
2017-03-09T12:54:11.879Z,300
2017-03-09T12:55:22.584Z,300
2017-03-09T12:56:33.283Z,305
2017-03-09T12:57:43.987Z,310
2017-03-09T12:58:54.313Z,315
2017-03-09T13:00:04.648Z,320
2017-03-09T13:01:15.355Z,325
2017-03-09T13:02:25.694Z,330
2017-03-09T13:03:36.394Z,335
2017-03-09T13:04:47.110Z,340
2017-03-09T13:05:57.830Z,345
2017-03-09T13:07:08.179Z,350
2017-03-09T13:08:18.894Z,350
2017-03-09T13:09:29.595Z,350
2017-03-09T13:10:39.946Z,345
2017-03-09T13:11:50.653Z,340
2017-03-09T13:13:01.423Z,335
2017-03-09T13:14:12.141Z,330
2017-03-09T13:15:22.443Z,320
2017-03-09T13:16:33.158Z,315
2017-03-09T13:17:43.071Z,310
2017-03-09T13:18:53.801Z,305
2017-03-09T13:20:04.532Z,305
2017-03-09T13:21:14.877Z,305
2017-03-09T13:22:25.187Z,305
2017-03-09T13:23:35.899Z,310
2017-03-09T13:24:46.607Z,315
2017-03-09T13:25:56.939Z,320
2017-03-09T13:27:07.675Z,325
2017-03-09T13:28:18.404Z,330
2017-03-09T13:29:29.110Z,335
2017-03-09T13:30:39.813Z,330
2017-03-09T13:31:50.521Z,330
2017-03-09T13:33:00.826Z,330
2017-03-09T13:34:11.549Z,330
2017-03-09T13:35:22.271Z,325
2017-03-09T13:36:32.189Z,320
2017-03-09T13:37:42.916Z,315
2017-03-09T13:38:53.637Z,310
2017-03-09T13:40:04.362Z,305
2017-03-09T13:41:15.064Z,300
2017-03-09T13:42:25.786Z,300
2017-03-09T13:43:36.106Z,295
2017-03-09T13:44:46.817Z,295
2017-03-09T13:45:57.519Z,290
2017-03-09T13:47:07.831Z,290
2017-03-09T13:48:18.527Z,295
2017-03-09T13:49:28.858Z,295
2017-03-09T13:50:39.594Z,295
2017-03-09T13:51:50.305Z,300
2017-03-09T13:53:01.032Z,300
2017-03-09T13:54:11.394Z,305
2017-03-09T13:55:22.124Z,305
2017-03-09T13:56:32.431Z,310
2017-03-09T13:57:43.138Z,310
2017-03-09T13:58:53.850Z,315
2017-03-09T14:00:04.557Z,315
2017-03-09T14:01:14.477Z,315
2017-03-09T14:02:25.191Z,315
2017-03-09T14:03:35.551Z,315
2017-03-09T14:04:46.263Z,315
2017-03-09T14:05:56.979Z,315
2017-03-09T14:07:07.692Z,315
2017-03-09T14:08:18.401Z,320
2017-03-09T14:09:28.314Z,320
2017-03-09T14:10:39.042Z,325
2017-03-09T14:11:49.350Z,330
2017-03-09T14:12:59.291Z,335
2017-03-09T14:14:10.015Z,340
2017-03-09T14:15:20.755Z,340
2017-03-09T14:16:31.482Z,345
2017-03-09T14:17:42.186Z,345
2017-03-09T14:18:52.500Z,345
2017-03-09T14:20:02.412Z,345
2017-03-09T14:21:13.136Z,345
2017-03-09T14:22:23.861Z,350
2017-03-09T14:23:34.182Z,350
2017-03-09T14:24:44.906Z,355
2017-03-09T14:25:55.230Z,360
2017-03-09T14:27:05.940Z,360
2017-03-09T14:28:16.655Z,360
2017-03-09T14:29:27.390Z,355
2017-03-09T14:30:38.092Z,350
2017-03-09T14:31:48.810Z,350
2017-03-09T14:32:59.505Z,350
2017-03-09T14:34:10.208Z,355
2017-03-09T14:35:20.928Z,355
2017-03-09T14:36:31.662Z,350
2017-03-09T14:37:41.976Z,345
2017-03-09T14:38:52.687Z,335
2017-03-09T14:40:03.397Z,335
2017-03-09T14:41:14.110Z,330
2017-03-09T14:42:24.433Z,325
2017-03-09T14:43:35.151Z,325
2017-03-09T14:44:45.465Z,325
2017-03-09T14:45:56.179Z,320
2017-03-09T14:47:06.887Z,320
2017-03-09T14:48:17.195Z,320
2017-03-09T14:49:27.111Z,310
2017-03-09T14:50:37.813Z,310
2017-03-09T14:51:48.520Z,300
2017-03-09T14:52:59.234Z,295
2017-03-09T14:54:09.949Z,285
2017-03-09T14:55:21.108Z,285
2017-03-09T14:56:32.030Z,280
2017-03-09T14:57:42.827Z,270
2017-03-09T14:58:54.074Z,270
2017-03-09T15:00:05.968Z,265
2017-03-09T15:01:17.333Z,265
2017-03-09T15:02:27.682Z,265
2017-03-09T15:03:38.411Z,270
2017-03-09T15:04:48.777Z,270
2017-03-09T15:05:59.489Z,275
2017-03-09T15:07:10.208Z,270
2017-03-09T15:08:20.919Z,270
2017-03-09T15:09:31.661Z,275
2017-03-09T15:10:42.406Z,285
2017-03-09T15:11:53.119Z,310
2017-03-09T15:13:03.851Z,360
2017-03-09T15:14:14.553Z,370
2017-03-09T15:15:25.267Z,410
2017-03-09T15:16:35.983Z,380
2017-03-09T15:17:46.695Z,520
2017-03-09T15:18:57.408Z,595
2017-03-09T15:20:07.334Z,545
2017-03-09T15:21:18.042Z,440
2017-03-09T15:22:28.740Z,395
2017-03-09T15:23:39.481Z,410
2017-03-09T15:24:49.792Z,415
2017-03-09T15:26:00.489Z,450
2017-03-09T15:27:10.820Z,595
2017-03-09T15:28:21.551Z,520
2017-03-09T15:29:31.065Z,590
2017-03-09T15:30:41.782Z,680
2017-03-09T15:31:52.093Z,460
2017-03-09T15:33:02.407Z,525
2017-03-09T15:34:12.718Z,405
2017-03-09T15:35:23.412Z,405
2017-03-09T15:36:33.709Z,430
2017-03-09T15:37:44.013Z,465
2017-03-09T15:38:54.727Z,475
2017-03-09T15:40:05.439Z,825
2017-03-09T15:41:16.174Z,740
2017-03-09T15:42:26.900Z,605
2017-03-09T15:43:37.232Z,665
2017-03-09T15:44:47.969Z,860
2017-03-09T15:45:58.693Z,800
2017-03-09T15:47:08.617Z,780
2017-03-09T15:48:19.323Z,650
2017-03-09T15:49:30.030Z,530
2017-03-09T15:50:40.769Z,450
2017-03-09T15:51:51.484Z,480
2017-03-09T15:53:01.808Z,395
2017-03-09T15:54:12.545Z,355
2017-03-09T15:55:23.264Z,320
2017-03-09T15:56:33.981Z,300
2017-03-09T15:57:44.687Z,340
2017-03-09T15:58:55.409Z,380
2017-03-09T16:00:06.158Z,380
2017-03-09T16:01:16.880Z,390
2017-03-09T16:02:27.607Z,425
2017-03-09T16:03:37.922Z,380
2017-03-09T16:04:48.266Z,305
2017-03-09T16:05:58.976Z,275
2017-03-09T16:07:09.701Z,255
2017-03-09T16:08:20.414Z,225
2017-03-09T16:09:31.126Z,220
2017-03-09T16:10:41.842Z,215
2017-03-09T16:11:52.544Z,200
2017-03-09T16:13:02.875Z,170
2017-03-09T16:14:13.601Z,160
2017-03-09T16:15:24.334Z,160
2017-03-09T16:16:34.651Z,165
2017-03-09T16:17:45.361Z,185
2017-03-09T16:18:56.075Z,165
2017-03-09T16:20:06.824Z,160
2017-03-09T16:21:17.547Z,155
2017-03-09T16:22:28.270Z,160
2017-03-09T16:23:39.003Z,215
2017-03-09T16:24:49.713Z,215
2017-03-09T16:26:00.428Z,185
2017-03-09T16:27:11.135Z,165
2017-03-09T16:28:21.847Z,145
2017-03-09T16:29:32.178Z,140
2017-03-09T16:30:42.494Z,115
2017-03-09T16:31:53.210Z,100
2017-03-09T16:33:03.944Z,95
2017-03-09T16:34:14.260Z,85
2017-03-09T16:35:24.981Z,85
2017-03-09T16:36:35.682Z,80
2017-03-09T16:37:46.407Z,75
2017-03-09T16:38:57.139Z,70
2017-03-09T16:40:07.451Z,65